createdAt,value
2022-11-15T00:01:10.412Z,76.31
2022-11-15T00:03:37.514Z,76.33
2022-11-15T00:06:05.722Z,76.22
2022-11-15T00:08:33.728Z,76.23
2022-11-15T00:11:03.273Z,76.11
2022-11-15T00:13:31.760Z,76.08
2022-11-15T00:16:00.780Z,76.05
2022-11-15T00:18:29.173Z,76.09
2022-11-15T00:20:57.296Z,76.12
2022-11-15T00:23:24.705Z,76.06
2022-11-15T00:25:59.026Z,75.98
2022-11-15T00:28:27.105Z,75.96
2022-11-15T00:30:54.435Z,75.99
2022-11-15T00:33:22.488Z,76.12
2022-11-15T00:35:50.244Z,75.96
2022-11-15T00:38:18.283Z,75.92
2022-11-15T00:40:45.995Z,75.99
2022-11-15T00:43:13.329Z,75.96
2022-11-15T00:45:40.743Z,76.10
2022-11-15T00:48:08.943Z,76.18
2022-11-15T00:50:36.335Z,76.29
2022-11-15T00:53:04.296Z,76.26
2022-11-15T00:55:32.071Z,76.26
2022-11-15T00:57:59.356Z,76.27
2022-11-15T01:00:26.341Z,76.29
2022-11-15T01:02:53.740Z,76.26
2022-11-15T01:05:21.225Z,76.23
2022-11-15T01:07:48.178Z,76.25
2022-11-15T01:10:15.710Z,76.23
2022-11-15T01:12:42.822Z,76.35
2022-11-15T01:15:10.215Z,76.28
2022-11-15T01:17:37.339Z,76.30
2022-11-15T01:20:04.793Z,76.25
2022-11-15T01:22:32.257Z,76.26
2022-11-15T01:24:59.629Z,76.25
2022-11-15T01:27:27.066Z,76.31
2022-11-15T01:29:53.834Z,76.29
2022-11-15T01:32:21.236Z,76.27
2022-11-15T01:34:48.313Z,76.34
2022-11-15T01:37:15.712Z,76.34
2022-11-15T01:39:42.853Z,76.29
2022-11-15T01:42:16.444Z,76.34
2022-11-15T01:44:53.025Z,76.39
2022-11-15T01:47:27.890Z,76.46
2022-11-15T01:50:02.362Z,76.54
2022-11-15T01:52:32.439Z,76.58
2022-11-15T01:55:22.401Z,76.52
2022-11-15T01:57:54.669Z,76.49
2022-11-15T02:00:22.067Z,76.54
2022-11-15T02:02:49.196Z,76.56
2022-11-15T02:05:16.751Z,76.57
2022-11-15T02:07:44.024Z,76.57
2022-11-15T02:10:14.633Z,76.46
2022-11-15T02:12:42.526Z,76.54
2022-11-15T02:15:12.462Z,76.55
2022-11-15T02:18:27.645Z,76.52
2022-11-15T02:21:06.410Z,76.42
2022-11-15T02:23:33.420Z,76.47
2022-11-15T02:26:12.931Z,76.43
2022-11-15T02:28:46.613Z,76.41
2022-11-15T02:31:22.869Z,76.44
2022-11-15T02:34:05.574Z,76.43
2022-11-15T02:37:17.051Z,76.48
2022-11-15T02:40:04.885Z,76.41
2022-11-15T02:42:55.218Z,76.35
2022-11-15T02:45:30.742Z,76.36
2022-11-15T02:48:00.746Z,76.38
2022-11-15T02:50:30.779Z,76.44
2022-11-15T02:52:57.956Z,76.41
2022-11-15T02:55:36.968Z,76.50
2022-11-15T02:58:09.645Z,76.47
2022-11-15T03:00:48.618Z,76.48
2022-11-15T03:03:33.636Z,76.50
2022-11-15T03:06:23.448Z,76.43
2022-11-15T03:09:05.922Z,76.47
2022-11-15T03:11:42.628Z,76.52
2022-11-15T03:14:22.322Z,76.61
2022-11-15T03:17:14.341Z,76.64
2022-11-15T03:20:01.668Z,76.71
2022-11-15T03:22:31.405Z,76.81
2022-11-15T03:25:03.209Z,76.79
2022-11-15T03:27:36.624Z,76.75
2022-11-15T03:30:07.997Z,76.77
2022-11-15T03:32:48.626Z,76.80
2022-11-15T03:35:20.822Z,77.00
2022-11-15T03:38:09.863Z,76.92
2022-11-15T03:40:42.878Z,76.94
2022-11-15T03:43:27.611Z,76.90
2022-11-15T03:46:03.753Z,76.95
2022-11-15T03:48:46.313Z,76.92
2022-11-15T03:51:14.792Z,76.94
2022-11-15T03:53:42.635Z,77.01
2022-11-15T03:56:09.391Z,77.15
2022-11-15T03:58:36.799Z,77.15
2022-11-15T04:01:04.049Z,77.12
2022-11-15T04:03:31.553Z,77.12
2022-11-15T04:05:58.503Z,76.97
2022-11-15T04:08:25.924Z,76.97
2022-11-15T04:10:52.787Z,77.00
2022-11-15T04:13:19.546Z,76.99
2022-11-15T04:15:46.946Z,77.00
2022-11-15T04:18:14.085Z,77.08
2022-11-15T04:20:59.540Z,77.14
2022-11-15T04:23:45.298Z,77.09
2022-11-15T04:26:16.444Z,77.10
2022-11-15T04:29:01.726Z,77.04
2022-11-15T04:31:29.483Z,77.08
2022-11-15T04:33:56.870Z,77.00
2022-11-15T04:36:42.908Z,77.17
2022-11-15T04:39:10.063Z,77.19
2022-11-15T04:41:37.372Z,77.25
2022-11-15T04:44:04.497Z,77.24
2022-11-15T04:46:31.856Z,77.28
2022-11-15T04:48:59.547Z,77.27
2022-11-15T04:51:27.062Z,77.25
2022-11-15T04:53:53.862Z,77.29
2022-11-15T04:56:20.970Z,77.36
2022-11-15T04:58:50.991Z,77.36
2022-11-15T05:01:18.779Z,77.33
2022-11-15T05:04:05.416Z,77.37
2022-11-15T05:06:32.666Z,77.33
2022-11-15T05:08:59.688Z,77.30
2022-11-15T05:11:28.610Z,77.27
2022-11-15T05:13:56.332Z,77.40
2022-11-15T05:16:23.447Z,77.33
2022-11-15T05:18:54.995Z,77.41
2022-11-15T05:21:22.587Z,77.36
2022-11-15T05:23:50.131Z,77.38
2022-11-15T05:26:18.891Z,77.47
2022-11-15T05:28:46.375Z,77.52
2022-11-15T05:31:17.774Z,77.47
2022-11-15T05:33:45.469Z,77.47
2022-11-15T05:36:21.643Z,77.42
2022-11-15T05:38:50.295Z,77.44
2022-11-15T05:41:22.301Z,77.42
2022-11-15T05:43:51.069Z,77.42
2022-11-15T05:46:19.229Z,77.58
2022-11-15T05:48:50.612Z,77.49
2022-11-15T05:51:18.547Z,77.50
2022-11-15T05:53:46.605Z,77.41
2022-11-15T05:56:14.061Z,77.42
2022-11-15T05:58:40.955Z,77.44
2022-11-15T06:01:08.661Z,77.51
2022-11-15T06:03:35.436Z,77.47
2022-11-15T06:06:02.223Z,77.54
2022-11-15T06:08:29.724Z,77.41
2022-11-15T06:10:56.871Z,77.42
2022-11-15T06:13:23.615Z,77.53
2022-11-15T06:15:51.099Z,77.52
2022-11-15T06:18:17.840Z,77.44
2022-11-15T06:20:44.587Z,77.47
2022-11-15T06:23:12.417Z,77.41
2022-11-15T06:25:39.204Z,77.35
2022-11-15T06:28:06.316Z,77.39
2022-11-15T06:30:33.422Z,77.36
2022-11-15T06:33:05.435Z,77.35
2022-11-15T06:35:34.808Z,77.39
2022-11-15T06:38:07.983Z,77.44
2022-11-15T06:40:36.715Z,77.39
2022-11-15T06:43:05.198Z,77.42
2022-11-15T06:45:33.057Z,77.34
2022-11-15T06:48:00.352Z,77.31
2022-11-15T06:50:27.776Z,77.36
2022-11-15T06:52:55.996Z,77.37
2022-11-15T06:55:23.188Z,77.39
2022-11-15T06:57:52.114Z,77.34
2022-11-15T07:00:21.567Z,77.30
2022-11-15T07:02:48.896Z,77.27
2022-11-15T07:05:17.676Z,77.34
2022-11-15T07:07:44.465Z,77.39
2022-11-15T07:10:11.864Z,77.40
2022-11-15T07:12:38.963Z,77.44
2022-11-15T07:15:07.203Z,77.41
2022-11-15T07:17:33.964Z,77.48
2022-11-15T07:20:01.143Z,77.48
2022-11-15T07:22:28.323Z,77.54
2022-11-15T07:24:55.512Z,77.49
2022-11-15T07:27:22.871Z,77.47
2022-11-15T07:29:50.231Z,77.49
2022-11-15T07:32:18.381Z,77.46
2022-11-15T07:34:47.228Z,77.51
2022-11-15T07:37:14.682Z,77.51
2022-11-15T07:39:41.795Z,77.48
2022-11-15T07:42:27.795Z,77.42
2022-11-15T07:44:55.107Z,77.36
2022-11-15T07:47:22.321Z,77.34
2022-11-15T07:49:49.495Z,77.34
2022-11-15T07:52:16.934Z,77.39
2022-11-15T07:54:43.678Z,77.39
2022-11-15T07:57:11.061Z,77.30
2022-11-15T07:59:38.477Z,77.24
2022-11-15T08:02:05.329Z,77.25
2022-11-15T08:04:32.842Z,77.30
2022-11-15T08:06:59.936Z,77.29
2022-11-15T08:09:27.452Z,77.32
2022-11-15T08:11:54.222Z,77.42
2022-11-15T08:14:23.086Z,77.36
2022-11-15T08:16:50.585Z,77.26
2022-11-15T08:19:17.734Z,77.14
2022-11-15T08:21:44.901Z,76.96
2022-11-15T08:24:12.466Z,76.97
2022-11-15T08:26:39.416Z,76.96
2022-11-15T08:29:06.767Z,76.93
2022-11-15T08:31:34.437Z,76.85
2022-11-15T08:34:02.345Z,76.83
2022-11-15T08:36:34.831Z,76.80
2022-11-15T08:39:12.629Z,76.70
2022-11-15T08:41:40.068Z,76.66
2022-11-15T08:44:07.262Z,76.57
2022-11-15T08:46:34.359Z,76.41
2022-11-15T08:49:01.109Z,76.32
2022-11-15T08:51:28.876Z,76.17
2022-11-15T08:53:56.001Z,75.99
2022-11-15T08:56:23.483Z,75.96
2022-11-15T08:58:50.575Z,75.89
2022-11-15T09:01:21.983Z,75.75
2022-11-15T09:03:49.437Z,75.64
2022-11-15T09:06:16.347Z,75.58
2022-11-15T09:08:48.236Z,75.51
2022-11-15T09:11:17.567Z,75.51
2022-11-15T09:13:45.057Z,75.52
2022-11-15T09:16:13.712Z,75.64
2022-11-15T09:18:40.864Z,75.66
2022-11-15T09:21:08.286Z,75.66
2022-11-15T09:23:35.408Z,75.68
2022-11-15T09:26:03.966Z,75.63
2022-11-15T09:28:32.461Z,75.58
2022-11-15T09:31:05.435Z,75.57
2022-11-15T09:33:33.352Z,75.64
2022-11-15T09:36:03.251Z,75.60
2022-11-15T09:38:30.812Z,75.59
2022-11-15T09:41:13.474Z,75.64
2022-11-15T09:44:25.132Z,75.66
2022-11-15T09:47:02.961Z,75.70
2022-11-15T09:49:32.221Z,75.76
2022-11-15T09:51:59.900Z,75.74
2022-11-15T09:57:21.672Z,75.74
2022-11-15T10:00:04.020Z,75.72
2022-11-15T10:02:52.180Z,75.75
2022-11-15T10:05:25.174Z,75.69
2022-11-15T10:08:20.263Z,75.65
2022-11-15T10:11:00.571Z,75.62
2022-11-15T10:13:42.794Z,75.55
2022-11-15T10:16:49.432Z,75.53
2022-11-15T10:19:31.859Z,75.51
2022-11-15T10:22:15.698Z,75.45
2022-11-15T10:24:46.588Z,75.36
2022-11-15T10:27:16.988Z,75.43
2022-11-15T10:29:52.845Z,75.42
2022-11-15T10:32:22.590Z,75.32
2022-11-15T10:34:50.836Z,75.29
2022-11-15T10:37:32.576Z,75.22
2022-11-15T10:40:05.655Z,75.21
2022-11-15T10:42:32.729Z,75.18
2022-11-15T10:44:59.806Z,75.14
2022-11-15T10:47:37.976Z,75.12
2022-11-15T10:50:27.064Z,75.09
2022-11-15T10:52:54.837Z,74.99
2022-11-15T10:55:27.671Z,74.98
2022-11-15T10:58:00.148Z,75.07
2022-11-15T11:00:32.252Z,74.94
2022-11-15T11:03:00.868Z,74.99
2022-11-15T11:05:42.148Z,74.96
2022-11-15T11:08:12.414Z,74.96
2022-11-15T11:11:01.465Z,74.89
2022-11-15T11:13:30.193Z,74.85
2022-11-15T11:16:03.711Z,74.81
2022-11-15T11:18:56.610Z,74.78
2022-11-15T11:21:58.950Z,74.84
2022-11-15T11:24:49.308Z,74.89
2022-11-15T11:27:44.079Z,74.89
2022-11-15T11:30:49.833Z,74.93
2022-11-15T11:33:29.485Z,74.93
2022-11-15T11:36:34.144Z,74.93
2022-11-15T11:39:22.547Z,74.97
2022-11-15T11:42:17.186Z,74.96
2022-11-15T11:45:13.430Z,74.96
2022-11-15T11:47:47.356Z,74.98
2022-11-15T11:50:24.654Z,74.98
2022-11-15T11:53:03.877Z,74.98
2022-11-15T11:55:48.982Z,74.96
2022-11-15T11:58:22.172Z,74.97
2022-11-15T12:01:27.262Z,74.95
2022-11-15T12:04:03.611Z,75.00
2022-11-15T12:06:41.882Z,74.99
2022-11-15T12:09:33.413Z,74.96
2022-11-15T12:12:19.122Z,75.12
2022-11-15T12:14:57.406Z,75.02
2022-11-15T12:17:27.729Z,74.90
2022-11-15T12:19:58.827Z,74.84
2022-11-15T12:22:42.787Z,74.81
2022-11-15T12:25:20.618Z,74.81
2022-11-15T12:28:14.945Z,74.77
2022-11-15T12:30:55.070Z,74.82
2022-11-15T12:33:43.718Z,74.86
2022-11-15T12:36:33.588Z,74.91
2022-11-15T12:39:04.106Z,74.89
2022-11-15T12:41:39.312Z,74.97
2022-11-15T12:44:13.099Z,74.91
2022-11-15T12:46:40.097Z,74.87
2022-11-15T12:49:29.077Z,74.82
2022-11-15T12:51:59.212Z,74.86
2022-11-15T12:54:27.876Z,74.76
2022-11-15T12:57:03.981Z,74.83
2022-11-15T12:59:50.063Z,74.76
2022-11-15T13:02:29.017Z,74.71
2022-11-15T13:05:21.892Z,74.70
2022-11-15T13:07:49.245Z,74.71
2022-11-15T13:10:31.144Z,74.76
2022-11-15T13:13:01.319Z,74.78
2022-11-15T13:15:31.135Z,74.94
2022-11-15T13:17:59.053Z,74.92
2022-11-15T13:20:32.012Z,74.86
2022-11-15T13:23:08.878Z,74.85
2022-11-15T13:25:49.230Z,74.88
2022-11-15T13:28:16.576Z,74.90
2022-11-15T13:30:54.256Z,74.95
2022-11-15T13:33:41.879Z,74.97
2022-11-15T13:36:27.369Z,74.96
2022-11-15T13:39:15.586Z,74.93
2022-11-15T13:41:49.333Z,75.04
2022-11-15T13:44:29.506Z,74.95
2022-11-15T13:47:14.154Z,74.87
2022-11-15T13:49:42.384Z,74.87
2022-11-15T13:52:15.542Z,74.85
2022-11-15T13:54:52.188Z,74.89
2022-11-15T13:57:41.992Z,74.88
2022-11-15T14:00:25.964Z,74.84
2022-11-15T14:02:53.862Z,74.82
2022-11-15T14:05:25.790Z,74.84
2022-11-15T14:08:00.130Z,75.01
2022-11-15T14:10:37.348Z,74.94
2022-11-15T14:13:11.766Z,74.90
2022-11-15T14:15:40.831Z,74.99
2022-11-15T14:18:08.271Z,74.89
2022-11-15T14:20:40.210Z,74.90
2022-11-15T14:23:25.961Z,74.87
2022-11-15T14:25:58.179Z,74.99
2022-11-15T14:28:25.520Z,74.85
2022-11-15T14:30:55.127Z,74.92
2022-11-15T14:33:24.053Z,74.84
2022-11-15T14:35:53.387Z,74.91
2022-11-15T14:38:20.660Z,74.88
2022-11-15T14:40:47.876Z,75.03
2022-11-15T14:43:15.674Z,75.16
2022-11-15T14:45:43.439Z,75.16
2022-11-15T14:48:10.671Z,75.06
2022-11-15T14:50:38.258Z,75.20
2022-11-15T14:53:06.541Z,75.37
2022-11-15T14:55:37.174Z,75.40
2022-11-15T14:58:05.969Z,75.49
2022-11-15T15:00:35.218Z,75.48
2022-11-15T15:03:04.068Z,75.48
2022-11-15T15:05:32.531Z,75.51
2022-11-15T15:08:00.564Z,75.56
2022-11-15T15:10:40.025Z,75.61
2022-11-15T15:13:31.812Z,75.65
2022-11-15T15:15:58.911Z,75.67
2022-11-15T15:18:25.991Z,75.72
2022-11-15T15:21:08.488Z,75.73
2022-11-15T15:23:36.665Z,75.69
2022-11-15T15:26:03.935Z,75.75
2022-11-15T15:28:34.592Z,75.77
2022-11-15T15:31:03.217Z,75.69
2022-11-15T15:33:30.349Z,75.71
2022-11-15T15:35:57.237Z,75.80
2022-11-15T15:38:24.729Z,75.77
2022-11-15T15:40:51.926Z,75.77
2022-11-15T15:43:18.843Z,75.93
2022-11-15T15:45:46.419Z,75.91
2022-11-15T15:48:17.785Z,75.92
2022-11-15T15:50:45.705Z,75.89
2022-11-15T15:53:14.041Z,75.80
2022-11-15T15:55:41.311Z,75.81
2022-11-15T15:58:09.353Z,75.88
2022-11-15T16:00:37.238Z,75.86
2022-11-15T16:03:04.282Z,75.85
2022-11-15T16:05:31.503Z,75.85
2022-11-15T16:07:59.105Z,75.88
2022-11-15T16:10:29.851Z,75.77
2022-11-15T16:12:58.689Z,75.93
2022-11-15T16:15:28.904Z,75.86
2022-11-15T16:17:57.975Z,75.87
2022-11-15T16:20:35.801Z,75.92
2022-11-15T16:23:09.165Z,75.93
2022-11-15T16:25:57.406Z,76.10
2022-11-15T16:28:28.632Z,75.97
2022-11-15T16:31:11.349Z,75.93
2022-11-15T16:33:39.595Z,75.97
2022-11-15T16:36:14.027Z,76.04
2022-11-15T16:38:41.165Z,76.01
2022-11-15T16:41:08.467Z,76.03
2022-11-15T16:43:35.565Z,76.07
2022-11-15T16:46:13.823Z,76.03
2022-11-15T16:48:40.706Z,76.04
2022-11-15T16:51:07.910Z,76.03
2022-11-15T16:53:35.064Z,76.01
2022-11-15T16:56:02.810Z,75.98
2022-11-15T16:58:30.499Z,76.12
2022-11-15T17:00:57.935Z,76.11
2022-11-15T17:03:25.877Z,76.01
2022-11-15T17:05:53.686Z,76.12
2022-11-15T17:08:22.142Z,76.02
2022-11-15T17:10:49.565Z,76.12
2022-11-15T17:13:16.763Z,76.16
2022-11-15T17:15:44.218Z,76.13
2022-11-15T17:18:13.258Z,76.15
2022-11-15T17:20:41.161Z,76.08
2022-11-15T17:23:14.608Z,76.13
2022-11-15T17:25:42.676Z,75.97
2022-11-15T17:28:11.176Z,76.06
2022-11-15T17:30:42.271Z,76.06
2022-11-15T17:33:09.443Z,76.02
2022-11-15T17:35:36.247Z,76.02
2022-11-15T17:38:03.869Z,76.10
2022-11-15T17:40:31.512Z,76.21
2022-11-15T17:43:01.607Z,76.10
2022-11-15T17:45:29.274Z,76.23
2022-11-15T17:47:56.451Z,76.14
2022-11-15T17:50:23.570Z,76.20
2022-11-15T17:52:50.738Z,76.20
2022-11-15T17:55:18.169Z,76.25
2022-11-15T17:57:45.625Z,76.17
2022-11-15T18:00:13.480Z,76.10
2022-11-15T18:02:40.297Z,76.20
2022-11-15T18:05:07.831Z,76.08
2022-11-15T18:07:35.095Z,76.05
2022-11-15T18:10:02.254Z,76.16
2022-11-15T18:12:29.626Z,76.22
2022-11-15T18:14:57.297Z,76.26
2022-11-15T18:17:24.621Z,76.10
2022-11-15T18:19:52.167Z,76.19
2022-11-15T18:22:20.884Z,76.08
2022-11-15T18:24:48.338Z,76.13
2022-11-15T18:27:15.861Z,76.25
2022-11-15T18:29:45.274Z,76.27
2022-11-15T18:32:18.188Z,76.22
2022-11-15T18:34:46.284Z,76.32
2022-11-15T18:37:13.598Z,76.20
2022-11-15T18:39:41.329Z,76.19
2022-11-15T18:42:08.507Z,76.10
2022-11-15T18:44:35.703Z,76.29
2022-11-15T18:47:03.325Z,76.17
2022-11-15T18:49:30.676Z,76.28
2022-11-15T18:51:58.276Z,76.34
2022-11-15T18:54:31.068Z,76.26
2022-11-15T18:56:59.597Z,76.25
2022-11-15T18:59:28.162Z,76.30
2022-11-15T19:01:56.177Z,76.24
2022-11-15T19:04:24.112Z,76.36
2022-11-15T19:06:53.892Z,76.38
2022-11-15T19:09:21.126Z,76.39
2022-11-15T19:11:51.951Z,76.41
2022-11-15T19:14:19.615Z,76.44
2022-11-15T19:16:55.576Z,76.37
2022-11-15T19:19:25.089Z,76.43
2022-11-15T19:21:53.537Z,76.40
2022-11-15T19:24:26.756Z,76.43
2022-11-15T19:26:55.547Z,76.51
2022-11-15T19:29:23.114Z,76.50
2022-11-15T19:31:50.459Z,76.44
2022-11-15T19:34:18.298Z,76.50
2022-11-15T19:36:46.637Z,76.42
2022-11-15T19:39:15.356Z,76.45
2022-11-15T19:41:44.597Z,76.53
2022-11-15T19:44:13.018Z,76.67
2022-11-15T19:46:41.102Z,76.64
2022-11-15T19:49:11.471Z,76.59
2022-11-15T19:51:39.866Z,76.76
2022-11-15T19:54:09.083Z,76.76
2022-11-15T19:56:37.762Z,76.79
2022-11-15T19:59:05.822Z,76.68
2022-11-15T20:01:38.353Z,76.73
2022-11-15T20:04:06.120Z,76.69
2022-11-15T20:06:42.873Z,76.68
2022-11-15T20:09:14.904Z,76.79
2022-11-15T20:11:43.110Z,76.72
2022-11-15T20:14:12.108Z,76.67
2022-11-15T20:16:40.194Z,76.73
2022-11-15T20:19:08.904Z,76.73
2022-11-15T20:21:36.433Z,76.88
2022-11-15T20:24:05.110Z,76.92
2022-11-15T20:26:32.721Z,76.78
2022-11-15T20:29:02.339Z,76.79
2022-11-15T20:31:30.865Z,76.83
2022-11-15T20:33:59.402Z,76.82
2022-11-15T20:36:26.507Z,76.93
2022-11-15T20:38:58.642Z,76.89
2022-11-15T20:41:27.633Z,77.10
2022-11-15T20:43:55.366Z,76.99
2022-11-15T20:46:22.938Z,76.93
2022-11-15T20:48:50.867Z,76.85
2022-11-15T20:51:19.721Z,76.98
2022-11-15T20:53:47.859Z,76.90
2022-11-15T20:56:20.829Z,77.23
2022-11-15T20:58:50.357Z,76.95
2022-11-15T21:01:24.077Z,76.98
2022-11-15T21:03:53.129Z,76.95
2022-11-15T21:06:21.802Z,77.09
2022-11-15T21:09:09.966Z,77.07
2022-11-15T21:11:57.351Z,77.21
2022-11-15T21:14:24.644Z,77.06
2022-11-15T21:16:52.375Z,76.96
2022-11-15T21:19:22.753Z,77.04
2022-11-15T21:21:54.626Z,76.98
2022-11-15T21:24:21.825Z,77.19
2022-11-15T21:26:48.604Z,77.39
2022-11-15T21:29:17.642Z,77.43
2022-11-15T21:31:46.205Z,77.43
2022-11-15T21:34:14.080Z,77.38
2022-11-15T21:36:41.546Z,77.38
2022-11-15T21:39:08.806Z,77.35
2022-11-15T21:41:35.983Z,77.21
2022-11-15T21:44:04.916Z,77.16
2022-11-15T21:46:32.328Z,77.15
2022-11-15T21:48:59.468Z,77.11
2022-11-15T21:51:26.863Z,77.12
2022-11-15T21:53:57.709Z,77.19
2022-11-15T21:56:26.707Z,77.07
2022-11-15T21:58:54.320Z,77.08
2022-11-15T22:01:42.384Z,77.17
2022-11-15T22:04:10.160Z,77.23
2022-11-15T22:06:38.157Z,77.14
2022-11-15T22:09:06.751Z,77.13
2022-11-15T22:11:33.956Z,77.22
2022-11-15T22:14:00.881Z,77.22
2022-11-15T22:16:28.355Z,77.44
2022-11-15T22:18:55.180Z,77.43
2022-11-15T22:21:22.329Z,77.25
2022-11-15T22:23:49.629Z,77.24
2022-11-15T22:26:23.197Z,77.27
2022-11-15T22:28:51.894Z,77.23
2022-11-15T22:31:19.271Z,77.17
2022-11-15T22:33:46.983Z,77.17
2022-11-15T22:36:14.166Z,77.24
2022-11-15T22:38:41.419Z,77.58
2022-11-15T22:41:08.508Z,77.57
2022-11-15T22:43:36.149Z,77.59
2022-11-15T22:46:04.712Z,77.38
2022-11-15T22:48:39.164Z,77.48
2022-11-15T22:51:07.893Z,77.31
2022-11-15T22:53:35.028Z,77.39
2022-11-15T22:56:04.045Z,77.46
2022-11-15T22:58:33.392Z,77.48
2022-11-15T23:01:03.515Z,77.57
2022-11-15T23:03:31.350Z,77.57
2022-11-15T23:06:06.879Z,77.41
2022-11-15T23:08:34.648Z,77.34
2022-11-15T23:11:21.811Z,77.40
2022-11-15T23:13:52.293Z,77.46
2022-11-15T23:16:22.378Z,77.58
2022-11-15T23:19:12.003Z,77.46
2022-11-15T23:22:17.464Z,77.39
2022-11-15T23:25:05.115Z,77.40
2022-11-15T23:27:32.278Z,77.70
2022-11-15T23:30:18.093Z,77.56
2022-11-15T23:33:03.777Z,77.51
2022-11-15T23:35:31.187Z,77.48
2022-11-15T23:37:57.972Z,77.43
2022-11-15T23:40:24.932Z,77.43
2022-11-15T23:42:52.393Z,77.41
2022-11-15T23:45:19.191Z,77.36
2022-11-15T23:47:46.263Z,77.34
2022-11-15T23:50:13.342Z,77.35
2022-11-15T23:52:40.426Z,77.34
2022-11-15T23:55:07.845Z,77.34
2022-11-15T23:57:35.292Z,77.33
